sensor_id;sensor_type;location;lat;lon;timestamp;temperature;humidity
32293;DHT22;43233;48.608;8.838;2023-12-20T00:01:36;6.10;65.70
32293;DHT22;43233;48.608;8.838;2023-12-20T00:04:02;6.10;65.70
32293;DHT22;43233;48.608;8.838;2023-12-20T00:06:28;6.10;66.00
32293;DHT22;43233;48.608;8.838;2023-12-20T00:08:53;6.10;65.60
32293;DHT22;43233;48.608;8.838;2023-12-20T00:11:19;6.10;65.80
32293;DHT22;43233;48.608;8.838;2023-12-20T00:13:44;6.10;66.00
32293;DHT22;43233;48.608;8.838;2023-12-20T00:16:10;6.10;66.20
32293;DHT22;43233;48.608;8.838;2023-12-20T00:18:36;6.10;66.30
32293;DHT22;43233;48.608;8.838;2023-12-20T00:21:01;6.10;66.50
32293;DHT22;43233;48.608;8.838;2023-12-20T00:23:27;6.10;66.50
32293;DHT22;43233;48.608;8.838;2023-12-20T00:25:52;6.10;66.70
32293;DHT22;43233;48.608;8.838;2023-12-20T00:28:18;6.10;67.70
32293;DHT22;43233;48.608;8.838;2023-12-20T00:30:44;6.10;67.30
32293;DHT22;43233;48.608;8.838;2023-12-20T00:33:09;6.10;67.20
32293;DHT22;43233;48.608;8.838;2023-12-20T00:35:35;6.10;67.40
32293;DHT22;43233;48.608;8.838;2023-12-20T00:38:01;6.10;67.30
32293;DHT22;43233;48.608;8.838;2023-12-20T00:40:26;6.00;67.20
32293;DHT22;43233;48.608;8.838;2023-12-20T00:42:52;6.10;67.40
32293;DHT22;43233;48.608;8.838;2023-12-20T00:45:17;6.10;67.40
32293;DHT22;43233;48.608;8.838;2023-12-20T00:47:43;6.10;67.50
32293;DHT22;43233;48.608;8.838;2023-12-20T00:50:09;6.10;67.70
32293;DHT22;43233;48.608;8.838;2023-12-20T00:52:35;6.10;68.00
32293;DHT22;43233;48.608;8.838;2023-12-20T00:55:00;6.10;67.90
32293;DHT22;43233;48.608;8.838;2023-12-20T00:57:26;6.10;67.90
32293;DHT22;43233;48.608;8.838;2023-12-20T00:59:52;6.10;68.00
32293;DHT22;43233;48.608;8.838;2023-12-20T01:02:17;6.10;68.20
32293;DHT22;43233;48.608;8.838;2023-12-20T01:04:43;6.10;68.50
32293;DHT22;43233;48.608;8.838;2023-12-20T01:07:09;6.10;68.60
32293;DHT22;43233;48.608;8.838;2023-12-20T01:09:34;6.10;68.70
32293;DHT22;43233;48.608;8.838;2023-12-20T01:12:00;6.10;68.90
32293;DHT22;43233;48.608;8.838;2023-12-20T01:14:25;6.10;69.00
32293;DHT22;43233;48.608;8.838;2023-12-20T01:16:51;6.10;69.30
32293;DHT22;43233;48.608;8.838;2023-12-20T01:19:17;6.10;69.40
32293;DHT22;43233;48.608;8.838;2023-12-20T01:21:42;6.10;69.60
32293;DHT22;43233;48.608;8.838;2023-12-20T01:24:08;6.10;69.70
32293;DHT22;43233;48.608;8.838;2023-12-20T01:26:34;6.10;70.10
32293;DHT22;43233;48.608;8.838;2023-12-20T01:29:00;6.10;70.30
32293;DHT22;43233;48.608;8.838;2023-12-20T01:31:26;6.10;70.30
32293;DHT22;43233;48.608;8.838;2023-12-20T01:33:52;6.10;70.20
32293;DHT22;43233;48.608;8.838;2023-12-20T01:36:18;6.10;70.40
32293;DHT22;43233;48.608;8.838;2023-12-20T01:38:44;6.10;70.40
32293;DHT22;43233;48.608;8.838;2023-12-20T01:41:09;6.20;70.20
32293;DHT22;43233;48.608;8.838;2023-12-20T01:43:35;6.20;70.10
32293;DHT22;43233;48.608;8.838;2023-12-20T01:46:01;6.20;70.10
32293;DHT22;43233;48.608;8.838;2023-12-20T01:48:27;6.20;70.20
32293;DHT22;43233;48.608;8.838;2023-12-20T01:50:54;6.20;70.10
32293;DHT22;43233;48.608;8.838;2023-12-20T01:53:23;6.20;70.10
32293;DHT22;43233;48.608;8.838;2023-12-20T01:55:50;6.20;70.00
32293;DHT22;43233;48.608;8.838;2023-12-20T01:58:17;6.20;70.20
32293;DHT22;43233;48.608;8.838;2023-12-20T02:00:44;6.20;70.00
32293;DHT22;43233;48.608;8.838;2023-12-20T02:03:10;6.20;70.20
32293;DHT22;43233;48.608;8.838;2023-12-20T02:05:38;6.20;70.20
32293;DHT22;43233;48.608;8.838;2023-12-20T02:08:04;6.20;70.20
32293;DHT22;43233;48.608;8.838;2023-12-20T02:10:31;6.10;70.10
32293;DHT22;43233;48.608;8.838;2023-12-20T02:12:57;6.10;70.10
32293;DHT22;43233;48.608;8.838;2023-12-20T02:15:23;6.10;70.10
32293;DHT22;43233;48.608;8.838;2023-12-20T02:17:49;6.10;70.10
32293;DHT22;43233;48.608;8.838;2023-12-20T02:20:14;6.10;70.20
32293;DHT22;43233;48.608;8.838;2023-12-20T02:22:40;6.10;70.10
32293;DHT22;43233;48.608;8.838;2023-12-20T02:25:06;6.10;70.00
32293;DHT22;43233;48.608;8.838;2023-12-20T02:27:32;6.10;70.00
32293;DHT22;43233;48.608;8.838;2023-12-20T02:29:57;6.10;70.00
32293;DHT22;43233;48.608;8.838;2023-12-20T02:32:24;6.10;70.10
32293;DHT22;43233;48.608;8.838;2023-12-20T02:34:53;6.10;70.90
32293;DHT22;43233;48.608;8.838;2023-12-20T02:37:18;6.10;69.90
32293;DHT22;43233;48.608;8.838;2023-12-20T02:39:44;6.00;69.90
32293;DHT22;43233;48.608;8.838;2023-12-20T02:42:10;6.00;70.00
32293;DHT22;43233;48.608;8.838;2023-12-20T02:44:35;6.00;70.10
32293;DHT22;43233;48.608;8.838;2023-12-20T02:47:02;6.00;70.10
32293;DHT22;43233;48.608;8.838;2023-12-20T02:49:27;6.00;69.80
32293;DHT22;43233;48.608;8.838;2023-12-20T02:51:53;6.00;69.90
32293;DHT22;43233;48.608;8.838;2023-12-20T02:54:18;6.00;69.90
32293;DHT22;43233;48.608;8.838;2023-12-20T02:56:44;6.00;70.00
32293;DHT22;43233;48.608;8.838;2023-12-20T02:59:10;6.00;69.80
32293;DHT22;43233;48.608;8.838;2023-12-20T03:01:41;6.00;69.80
32293;DHT22;43233;48.608;8.838;2023-12-20T03:04:07;6.00;69.90
32293;DHT22;43233;48.608;8.838;2023-12-20T03:06:33;6.00;70.10
32293;DHT22;43233;48.608;8.838;2023-12-20T03:08:58;6.00;70.00
32293;DHT22;43233;48.608;8.838;2023-12-20T03:11:27;6.00;70.10
32293;DHT22;43233;48.608;8.838;2023-12-20T03:13:53;6.00;70.20
32293;DHT22;43233;48.608;8.838;2023-12-20T03:16:18;6.00;70.30
32293;DHT22;43233;48.608;8.838;2023-12-20T03:18:44;6.00;70.30
32293;DHT22;43233;48.608;8.838;2023-12-20T03:21:10;6.00;70.40
32293;DHT22;43233;48.608;8.838;2023-12-20T03:23:35;6.00;70.30
32293;DHT22;43233;48.608;8.838;2023-12-20T03:26:01;6.00;70.10
32293;DHT22;43233;48.608;8.838;2023-12-20T03:28:27;6.00;70.00
32293;DHT22;43233;48.608;8.838;2023-12-20T03:30:53;6.00;69.80
32293;DHT22;43233;48.608;8.838;2023-12-20T03:33:18;6.00;69.90
32293;DHT22;43233;48.608;8.838;2023-12-20T03:35:44;6.00;70.00
32293;DHT22;43233;48.608;8.838;2023-12-20T03:38:10;6.00;70.10
32293;DHT22;43233;48.608;8.838;2023-12-20T03:40:35;6.00;70.10
32293;DHT22;43233;48.608;8.838;2023-12-20T03:43:01;5.90;70.70
32293;DHT22;43233;48.608;8.838;2023-12-20T03:45:27;5.90;69.90
32293;DHT22;43233;48.608;8.838;2023-12-20T03:47:52;5.90;70.10
32293;DHT22;43233;48.608;8.838;2023-12-20T03:50:27;5.90;70.10
32293;DHT22;43233;48.608;8.838;2023-12-20T03:52:53;5.90;69.90
32293;DHT22;43233;48.608;8.838;2023-12-20T03:55:18;5.90;70.10
32293;DHT22;43233;48.608;8.838;2023-12-20T03:57:44;5.90;69.80
32293;DHT22;43233;48.608;8.838;2023-12-20T04:00:10;5.90;69.90
32293;DHT22;43233;48.608;8.838;2023-12-20T04:02:40;5.80;70.10
32293;DHT22;43233;48.608;8.838;2023-12-20T04:05:16;5.80;70.10
32293;DHT22;43233;48.608;8.838;2023-12-20T04:07:41;5.80;70.10
32293;DHT22;43233;48.608;8.838;2023-12-20T04:10:07;5.80;70.00
32293;DHT22;43233;48.608;8.838;2023-12-20T04:12:34;5.80;70.00
32293;DHT22;43233;48.608;8.838;2023-12-20T04:14:59;5.80;70.10
32293;DHT22;43233;48.608;8.838;2023-12-20T04:17:25;5.80;70.10
32293;DHT22;43233;48.608;8.838;2023-12-20T04:19:51;5.80;69.90
32293;DHT22;43233;48.608;8.838;2023-12-20T04:22:18;5.80;69.90
32293;DHT22;43233;48.608;8.838;2023-12-20T04:24:44;5.80;69.90
32293;DHT22;43233;48.608;8.838;2023-12-20T04:27:10;5.80;69.80
32293;DHT22;43233;48.608;8.838;2023-12-20T04:29:35;5.70;69.70
32293;DHT22;43233;48.608;8.838;2023-12-20T04:32:01;5.70;69.80
32293;DHT22;43233;48.608;8.838;2023-12-20T04:34:27;5.70;69.80
32293;DHT22;43233;48.608;8.838;2023-12-20T04:36:53;5.70;69.50
32293;DHT22;43233;48.608;8.838;2023-12-20T04:39:18;5.70;69.50
32293;DHT22;43233;48.608;8.838;2023-12-20T04:41:44;5.70;69.50
32293;DHT22;43233;48.608;8.838;2023-12-20T04:44:10;5.60;69.40
32293;DHT22;43233;48.608;8.838;2023-12-20T04:46:35;5.60;69.50
32293;DHT22;43233;48.608;8.838;2023-12-20T04:49:01;5.60;69.70
32293;DHT22;43233;48.608;8.838;2023-12-20T04:51:27;5.60;69.50
32293;DHT22;43233;48.608;8.838;2023-12-20T04:53:52;5.60;69.50
32293;DHT22;43233;48.608;8.838;2023-12-20T04:56:18;5.60;69.70
32293;DHT22;43233;48.608;8.838;2023-12-20T04:58:44;5.60;69.60
32293;DHT22;43233;48.608;8.838;2023-12-20T05:01:10;5.60;69.70
32293;DHT22;43233;48.608;8.838;2023-12-20T05:03:36;5.60;69.80
32293;DHT22;43233;48.608;8.838;2023-12-20T05:06:01;5.60;69.80
32293;DHT22;43233;48.608;8.838;2023-12-20T05:08:27;5.50;69.80
32293;DHT22;43233;48.608;8.838;2023-12-20T05:10:54;5.60;69.80
32293;DHT22;43233;48.608;8.838;2023-12-20T05:13:20;5.60;69.80
32293;DHT22;43233;48.608;8.838;2023-12-20T05:15:46;5.60;70.00
32293;DHT22;43233;48.608;8.838;2023-12-20T05:18:12;5.60;70.10
32293;DHT22;43233;48.608;8.838;2023-12-20T05:20:38;5.60;70.20
32293;DHT22;43233;48.608;8.838;2023-12-20T05:23:04;5.60;71.30
32293;DHT22;43233;48.608;8.838;2023-12-20T05:25:29;5.60;70.50
32293;DHT22;43233;48.608;8.838;2023-12-20T05:27:55;5.60;70.70
32293;DHT22;43233;48.608;8.838;2023-12-20T05:30:21;5.60;70.90
32293;DHT22;43233;48.608;8.838;2023-12-20T05:32:47;5.60;70.80
32293;DHT22;43233;48.608;8.838;2023-12-20T05:35:13;5.60;71.00
32293;DHT22;43233;48.608;8.838;2023-12-20T05:37:38;5.60;70.90
32293;DHT22;43233;48.608;8.838;2023-12-20T05:40:04;5.60;71.10
32293;DHT22;43233;48.608;8.838;2023-12-20T05:42:30;5.60;71.40
32293;DHT22;43233;48.608;8.838;2023-12-20T05:44:56;5.60;71.50
32293;DHT22;43233;48.608;8.838;2023-12-20T05:47:21;5.60;71.60
32293;DHT22;43233;48.608;8.838;2023-12-20T05:49:47;5.60;71.80
32293;DHT22;43233;48.608;8.838;2023-12-20T05:52:13;5.60;72.20
32293;DHT22;43233;48.608;8.838;2023-12-20T05:54:38;5.60;72.40
32293;DHT22;43233;48.608;8.838;2023-12-20T05:57:04;5.60;72.40
32293;DHT22;43233;48.608;8.838;2023-12-20T05:59:29;5.60;72.50
32293;DHT22;43233;48.608;8.838;2023-12-20T06:01:55;5.60;72.40
32293;DHT22;43233;48.608;8.838;2023-12-20T06:04:21;5.60;72.50
32293;DHT22;43233;48.608;8.838;2023-12-20T06:06:46;5.60;72.50
32293;DHT22;43233;48.608;8.838;2023-12-20T06:09:12;5.70;72.60
32293;DHT22;43233;48.608;8.838;2023-12-20T06:11:38;5.70;72.40
32293;DHT22;43233;48.608;8.838;2023-12-20T06:14:03;5.60;72.10
32293;DHT22;43233;48.608;8.838;2023-12-20T06:16:29;5.60;72.40
32293;DHT22;43233;48.608;8.838;2023-12-20T06:18:54;5.60;72.30
32293;DHT22;43233;48.608;8.838;2023-12-20T06:21:20;5.60;72.20
32293;DHT22;43233;48.608;8.838;2023-12-20T06:23:46;5.50;72.20
32293;DHT22;43233;48.608;8.838;2023-12-20T06:26:11;5.50;72.20
32293;DHT22;43233;48.608;8.838;2023-12-20T06:28:37;5.50;72.20
32293;DHT22;43233;48.608;8.838;2023-12-20T06:31:03;5.50;72.80
32293;DHT22;43233;48.608;8.838;2023-12-20T06:33:29;5.50;72.30
32293;DHT22;43233;48.608;8.838;2023-12-20T06:35:56;5.40;72.10
32293;DHT22;43233;48.608;8.838;2023-12-20T06:38:22;5.40;72.00
32293;DHT22;43233;48.608;8.838;2023-12-20T06:40:48;5.30;72.30
32293;DHT22;43233;48.608;8.838;2023-12-20T06:43:14;5.30;72.60
32293;DHT22;43233;48.608;8.838;2023-12-20T06:45:40;5.20;72.70
32293;DHT22;43233;48.608;8.838;2023-12-20T06:48:06;5.20;72.80
32293;DHT22;43233;48.608;8.838;2023-12-20T06:50:31;5.20;72.90
32293;DHT22;43233;48.608;8.838;2023-12-20T06:52:57;5.20;73.10
32293;DHT22;43233;48.608;8.838;2023-12-20T06:55:23;5.20;73.10
32293;DHT22;43233;48.608;8.838;2023-12-20T06:57:48;5.20;73.10
32293;DHT22;43233;48.608;8.838;2023-12-20T07:00:14;5.20;73.20
32293;DHT22;43233;48.608;8.838;2023-12-20T07:02:40;5.20;73.40
32293;DHT22;43233;48.608;8.838;2023-12-20T07:05:06;5.30;73.60
32293;DHT22;43233;48.608;8.838;2023-12-20T07:07:32;5.30;73.60
32293;DHT22;43233;48.608;8.838;2023-12-20T07:09:57;5.30;73.70
32293;DHT22;43233;48.608;8.838;2023-12-20T07:12:23;5.30;73.80
32293;DHT22;43233;48.608;8.838;2023-12-20T07:14:48;5.40;73.80
32293;DHT22;43233;48.608;8.838;2023-12-20T07:17:14;5.40;73.70
32293;DHT22;43233;48.608;8.838;2023-12-20T07:19:41;5.40;73.50
32293;DHT22;43233;48.608;8.838;2023-12-20T07:22:07;5.40;73.60
32293;DHT22;43233;48.608;8.838;2023-12-20T07:24:33;5.50;73.70
32293;DHT22;43233;48.608;8.838;2023-12-20T07:27:02;5.50;74.00
32293;DHT22;43233;48.608;8.838;2023-12-20T07:29:27;5.50;74.00
32293;DHT22;43233;48.608;8.838;2023-12-20T07:31:53;5.50;74.10
32293;DHT22;43233;48.608;8.838;2023-12-20T07:34:22;5.50;74.10
32293;DHT22;43233;48.608;8.838;2023-12-20T07:36:48;5.60;74.10
32293;DHT22;43233;48.608;8.838;2023-12-20T07:39:14;5.60;74.10
32293;DHT22;43233;48.608;8.838;2023-12-20T07:41:40;5.60;74.10
32293;DHT22;43233;48.608;8.838;2023-12-20T07:44:06;5.60;74.20
32293;DHT22;43233;48.608;8.838;2023-12-20T07:46:32;5.60;74.10
32293;DHT22;43233;48.608;8.838;2023-12-20T07:48:57;5.60;74.20
32293;DHT22;43233;48.608;8.838;2023-12-20T07:51:23;5.60;74.20
32293;DHT22;43233;48.608;8.838;2023-12-20T07:53:49;5.60;74.20
32293;DHT22;43233;48.608;8.838;2023-12-20T07:56:16;5.60;74.20
32293;DHT22;43233;48.608;8.838;2023-12-20T07:58:42;5.60;74.10
32293;DHT22;43233;48.608;8.838;2023-12-20T08:01:08;5.60;74.30
32293;DHT22;43233;48.608;8.838;2023-12-20T08:03:33;5.70;74.40
32293;DHT22;43233;48.608;8.838;2023-12-20T08:05:59;5.60;74.30
32293;DHT22;43233;48.608;8.838;2023-12-20T08:08:25;5.60;74.40
32293;DHT22;43233;48.608;8.838;2023-12-20T08:10:51;5.60;74.50
32293;DHT22;43233;48.608;8.838;2023-12-20T08:13:16;5.60;74.80
32293;DHT22;43233;48.608;8.838;2023-12-20T08:15:42;5.50;74.90
32293;DHT22;43233;48.608;8.838;2023-12-20T08:18:07;5.50;75.40
32293;DHT22;43233;48.608;8.838;2023-12-20T08:20:33;5.40;75.40
32293;DHT22;43233;48.608;8.838;2023-12-20T08:22:59;5.50;75.50
32293;DHT22;43233;48.608;8.838;2023-12-20T08:25:24;5.50;75.80
32293;DHT22;43233;48.608;8.838;2023-12-20T08:27:50;5.50;75.80
32293;DHT22;43233;48.608;8.838;2023-12-20T08:30:15;5.50;75.70
32293;DHT22;43233;48.608;8.838;2023-12-20T08:32:46;5.50;75.30
32293;DHT22;43233;48.608;8.838;2023-12-20T08:35:11;5.50;73.80
32293;DHT22;43233;48.608;8.838;2023-12-20T08:37:37;5.50;73.80
32293;DHT22;43233;48.608;8.838;2023-12-20T08:40:02;5.50;73.10
32293;DHT22;43233;48.608;8.838;2023-12-20T08:42:28;5.50;72.40
32293;DHT22;43233;48.608;8.838;2023-12-20T08:44:59;5.50;72.20
32293;DHT22;43233;48.608;8.838;2023-12-20T08:47:25;5.50;70.90
32293;DHT22;43233;48.608;8.838;2023-12-20T08:49:53;5.50;69.80
32293;DHT22;43233;48.608;8.838;2023-12-20T08:52:22;5.50;69.40
32293;DHT22;43233;48.608;8.838;2023-12-20T08:54:49;5.50;68.20
32293;DHT22;43233;48.608;8.838;2023-12-20T08:57:20;5.60;67.20
32293;DHT22;43233;48.608;8.838;2023-12-20T08:59:47;5.70;65.30
32293;DHT22;43233;48.608;8.838;2023-12-20T09:02:13;5.70;66.00
32293;DHT22;43233;48.608;8.838;2023-12-20T09:04:39;5.80;64.90
32293;DHT22;43233;48.608;8.838;2023-12-20T09:07:05;6.00;65.80
32293;DHT22;43233;48.608;8.838;2023-12-20T09:09:31;6.10;64.20
32293;DHT22;43233;48.608;8.838;2023-12-20T09:11:57;6.70;63.40
32293;DHT22;43233;48.608;8.838;2023-12-20T09:14:23;7.30;58.60
32293;DHT22;43233;48.608;8.838;2023-12-20T09:16:49;7.70;56.80
32293;DHT22;43233;48.608;8.838;2023-12-20T09:19:16;8.20;55.20
32293;DHT22;43233;48.608;8.838;2023-12-20T09:21:42;8.50;52.90
32293;DHT22;43233;48.608;8.838;2023-12-20T09:24:08;9.20;50.20
32293;DHT22;43233;48.608;8.838;2023-12-20T09:26:34;10.10;44.20
32293;DHT22;43233;48.608;8.838;2023-12-20T09:29:00;11.00;40.20
32293;DHT22;43233;48.608;8.838;2023-12-20T09:31:25;11.80;38.50
32293;DHT22;43233;48.608;8.838;2023-12-20T09:33:51;12.50;36.30
32293;DHT22;43233;48.608;8.838;2023-12-20T09:36:17;13.10;34.60
32293;DHT22;43233;48.608;8.838;2023-12-20T09:38:42;13.40;31.20
32293;DHT22;43233;48.608;8.838;2023-12-20T09:41:08;13.60;31.80
32293;DHT22;43233;48.608;8.838;2023-12-20T09:43:37;13.80;31.30
32293;DHT22;43233;48.608;8.838;2023-12-20T09:46:05;14.00;30.10
32293;DHT22;43233;48.608;8.838;2023-12-20T09:48:31;14.20;30.70
32293;DHT22;43233;48.608;8.838;2023-12-20T09:50:58;14.10;29.90
32293;DHT22;43233;48.608;8.838;2023-12-20T09:53:25;13.70;29.60
32293;DHT22;43233;48.608;8.838;2023-12-20T09:55:58;13.50;28.90
32293;DHT22;43233;48.608;8.838;2023-12-20T09:58:25;13.50;29.90
32293;DHT22;43233;48.608;8.838;2023-12-20T10:00:50;13.70;30.20
32293;DHT22;43233;48.608;8.838;2023-12-20T10:03:17;14.10;29.20
32293;DHT22;43233;48.608;8.838;2023-12-20T10:05:45;14.70;27.60
32293;DHT22;43233;48.608;8.838;2023-12-20T10:08:12;15.00;27.20
32293;DHT22;43233;48.608;8.838;2023-12-20T10:10:38;15.00;25.40
32293;DHT22;43233;48.608;8.838;2023-12-20T10:13:05;15.00;26.40
32293;DHT22;43233;48.608;8.838;2023-12-20T10:15:33;15.70;25.70
32293;DHT22;43233;48.608;8.838;2023-12-20T10:17:58;16.00;24.50
32293;DHT22;43233;48.608;8.838;2023-12-20T10:20:24;15.70;24.30
32293;DHT22;43233;48.608;8.838;2023-12-20T10:22:51;15.10;24.30
32293;DHT22;43233;48.608;8.838;2023-12-20T10:25:20;14.40;25.20
32293;DHT22;43233;48.608;8.838;2023-12-20T10:27:46;13.70;26.30
32293;DHT22;43233;48.608;8.838;2023-12-20T10:30:12;13.00;27.40
32293;DHT22;43233;48.608;8.838;2023-12-20T10:32:38;12.70;28.50
32293;DHT22;43233;48.608;8.838;2023-12-20T10:35:04;12.60;28.70
32293;DHT22;43233;48.608;8.838;2023-12-20T10:37:30;12.80;29.00
32293;DHT22;43233;48.608;8.838;2023-12-20T10:39:55;13.00;27.20
32293;DHT22;43233;48.608;8.838;2023-12-20T10:42:26;12.70;27.70
32293;DHT22;43233;48.608;8.838;2023-12-20T10:44:52;12.20;28.60
32293;DHT22;43233;48.608;8.838;2023-12-20T10:47:22;11.70;29.60
32293;DHT22;43233;48.608;8.838;2023-12-20T10:49:49;11.30;30.30
32293;DHT22;43233;48.608;8.838;2023-12-20T10:52:17;10.70;31.80
32293;DHT22;43233;48.608;8.838;2023-12-20T10:54:44;10.30;32.90
32293;DHT22;43233;48.608;8.838;2023-12-20T10:57:10;9.80;33.30
32293;DHT22;43233;48.608;8.838;2023-12-20T10:59:37;9.50;34.10
32293;DHT22;43233;48.608;8.838;2023-12-20T11:02:04;9.20;35.20
32293;DHT22;43233;48.608;8.838;2023-12-20T11:04:47;9.10;35.60
32293;DHT22;43233;48.608;8.838;2023-12-20T11:07:21;8.90;36.10
32293;DHT22;43233;48.608;8.838;2023-12-20T11:10:00;8.90;36.00
32293;DHT22;43233;48.608;8.838;2023-12-20T11:12:42;8.80;36.40
32293;DHT22;43233;48.608;8.838;2023-12-20T11:15:11;8.70;36.30
32293;DHT22;43233;48.608;8.838;2023-12-20T11:17:39;8.60;36.60
32293;DHT22;43233;48.608;8.838;2023-12-20T11:20:09;8.40;37.00
32293;DHT22;43233;48.608;8.838;2023-12-20T11:22:36;8.30;38.10
32293;DHT22;43233;48.608;8.838;2023-12-20T11:25:05;8.10;38.50
32293;DHT22;43233;48.608;8.838;2023-12-20T11:27:32;8.00;38.70
32293;DHT22;43233;48.608;8.838;2023-12-20T11:29:58;7.80;38.50
32293;DHT22;43233;48.608;8.838;2023-12-20T11:34:51;7.50;39.40
32293;DHT22;43233;48.608;8.838;2023-12-20T11:37:17;7.40;39.50
32293;DHT22;43233;48.608;8.838;2023-12-20T11:39:44;7.40;39.40
32293;DHT22;43233;48.608;8.838;2023-12-20T11:42:10;7.40;39.80
32293;DHT22;43233;48.608;8.838;2023-12-20T11:44:37;7.40;40.10
32293;DHT22;43233;48.608;8.838;2023-12-20T11:47:03;7.30;39.90
32293;DHT22;43233;48.608;8.838;2023-12-20T11:49:29;7.20;40.70
32293;DHT22;43233;48.608;8.838;2023-12-20T11:51:56;7.20;41.30
32293;DHT22;43233;48.608;8.838;2023-12-20T11:54:22;7.10;41.80
32293;DHT22;43233;48.608;8.838;2023-12-20T11:56:48;7.00;42.80
32293;DHT22;43233;48.608;8.838;2023-12-20T11:59:15;7.00;42.10
32293;DHT22;43233;48.608;8.838;2023-12-20T12:01:47;7.00;43.20
32293;DHT22;43233;48.608;8.838;2023-12-20T12:04:13;7.00;42.90
32293;DHT22;43233;48.608;8.838;2023-12-20T12:06:39;7.00;42.70
32293;DHT22;43233;48.608;8.838;2023-12-20T12:09:05;7.00;43.00
32293;DHT22;43233;48.608;8.838;2023-12-20T12:11:30;7.10;43.40
32293;DHT22;43233;48.608;8.838;2023-12-20T12:13:56;7.10;43.80
32293;DHT22;43233;48.608;8.838;2023-12-20T12:16:22;7.30;43.20
32293;DHT22;43233;48.608;8.838;2023-12-20T12:18:56;7.40;42.60
32293;DHT22;43233;48.608;8.838;2023-12-20T12:21:21;7.60;42.40
32293;DHT22;43233;48.608;8.838;2023-12-20T12:23:48;7.80;41.20
32293;DHT22;43233;48.608;8.838;2023-12-20T12:26:13;8.00;40.60
32293;DHT22;43233;48.608;8.838;2023-12-20T12:28:43;8.10;39.80
32293;DHT22;43233;48.608;8.838;2023-12-20T12:31:13;8.30;38.90
32293;DHT22;43233;48.608;8.838;2023-12-20T12:33:41;8.30;39.20
32293;DHT22;43233;48.608;8.838;2023-12-20T12:36:07;8.40;39.30
32293;DHT22;43233;48.608;8.838;2023-12-20T12:38:33;8.30;38.80
32293;DHT22;43233;48.608;8.838;2023-12-20T12:41:00;8.30;38.80
32293;DHT22;43233;48.608;8.838;2023-12-20T12:43:26;8.20;39.00
32293;DHT22;43233;48.608;8.838;2023-12-20T12:45:51;8.10;39.20
32293;DHT22;43233;48.608;8.838;2023-12-20T12:48:17;8.10;40.60
32293;DHT22;43233;48.608;8.838;2023-12-20T12:50:45;8.50;39.80
32293;DHT22;43233;48.608;8.838;2023-12-20T12:53:11;9.30;37.70
32293;DHT22;43233;48.608;8.838;2023-12-20T12:55:36;9.80;35.80
32293;DHT22;43233;48.608;8.838;2023-12-20T12:58:02;10.20;34.80
32293;DHT22;43233;48.608;8.838;2023-12-20T13:00:28;10.30;34.00
32293;DHT22;43233;48.608;8.838;2023-12-20T13:02:54;10.40;33.40
32293;DHT22;43233;48.608;8.838;2023-12-20T13:05:19;10.60;33.30
32293;DHT22;43233;48.608;8.838;2023-12-20T13:07:45;11.40;32.00
32293;DHT22;43233;48.608;8.838;2023-12-20T13:10:11;12.40;29.30
32293;DHT22;43233;48.608;8.838;2023-12-20T13:12:37;13.10;28.70
32293;DHT22;43233;48.608;8.838;2023-12-20T13:15:02;13.30;27.60
32293;DHT22;43233;48.608;8.838;2023-12-20T13:17:29;13.70;27.00
32293;DHT22;43233;48.608;8.838;2023-12-20T13:19:55;14.10;25.50
32293;DHT22;43233;48.608;8.838;2023-12-20T13:22:20;14.50;25.30
32293;DHT22;43233;48.608;8.838;2023-12-20T13:24:46;15.00;24.30
32293;DHT22;43233;48.608;8.838;2023-12-20T13:27:12;15.30;23.30
32293;DHT22;43233;48.608;8.838;2023-12-20T13:29:37;15.50;23.10
32293;DHT22;43233;48.608;8.838;2023-12-20T13:32:03;15.50;23.30
32293;DHT22;43233;48.608;8.838;2023-12-20T13:34:29;15.10;22.50
32293;DHT22;43233;48.608;8.838;2023-12-20T13:36:55;14.40;23.60
32293;DHT22;43233;48.608;8.838;2023-12-20T13:39:22;13.60;24.80
32293;DHT22;43233;48.608;8.838;2023-12-20T13:41:47;12.70;26.10
32293;DHT22;43233;48.608;8.838;2023-12-20T13:44:13;12.00;27.40
32293;DHT22;43233;48.608;8.838;2023-12-20T13:46:39;11.30;28.80
32293;DHT22;43233;48.608;8.838;2023-12-20T13:49:05;10.70;30.20
32293;DHT22;43233;48.608;8.838;2023-12-20T13:51:31;10.20;31.60
32293;DHT22;43233;48.608;8.838;2023-12-20T13:53:56;9.80;32.90
32293;DHT22;43233;48.608;8.838;2023-12-20T13:56:23;9.40;34.00
32293;DHT22;43233;48.608;8.838;2023-12-20T13:58:49;9.00;34.80
32293;DHT22;43233;48.608;8.838;2023-12-20T14:01:16;8.70;36.30
32293;DHT22;43233;48.608;8.838;2023-12-20T14:03:42;8.40;37.10
32293;DHT22;43233;48.608;8.838;2023-12-20T14:06:07;8.20;38.00
32293;DHT22;43233;48.608;8.838;2023-12-20T14:08:33;8.00;39.50
32293;DHT22;43233;48.608;8.838;2023-12-20T14:10:59;7.80;40.30
32293;DHT22;43233;48.608;8.838;2023-12-20T14:13:26;7.60;41.30
32293;DHT22;43233;48.608;8.838;2023-12-20T14:15:52;7.50;42.40
32293;DHT22;43233;48.608;8.838;2023-12-20T14:18:19;7.40;43.00
32293;DHT22;43233;48.608;8.838;2023-12-20T14:20:45;7.30;44.30
32293;DHT22;43233;48.608;8.838;2023-12-20T14:23:12;7.20;45.30
32293;DHT22;43233;48.608;8.838;2023-12-20T14:25:41;7.10;46.80
32293;DHT22;43233;48.608;8.838;2023-12-20T14:28:07;7.00;47.50
32293;DHT22;43233;48.608;8.838;2023-12-20T14:30:33;6.90;47.70
32293;DHT22;43233;48.608;8.838;2023-12-20T14:33:00;6.90;48.30
32293;DHT22;43233;48.608;8.838;2023-12-20T14:35:26;6.80;49.20
32293;DHT22;43233;48.608;8.838;2023-12-20T14:37:51;6.70;49.90
32293;DHT22;43233;48.608;8.838;2023-12-20T14:40:17;6.60;50.30
32293;DHT22;43233;48.608;8.838;2023-12-20T14:42:44;6.60;50.30
32293;DHT22;43233;48.608;8.838;2023-12-20T14:45:10;6.50;51.20
32293;DHT22;43233;48.608;8.838;2023-12-20T14:47:36;6.40;51.00
32293;DHT22;43233;48.608;8.838;2023-12-20T14:50:05;6.40;51.50
32293;DHT22;43233;48.608;8.838;2023-12-20T14:52:32;6.30;52.10
32293;DHT22;43233;48.608;8.838;2023-12-20T14:55:02;6.30;52.60
32293;DHT22;43233;48.608;8.838;2023-12-20T14:57:28;6.20;53.10
32293;DHT22;43233;48.608;8.838;2023-12-20T14:59:55;6.20;53.80
32293;DHT22;43233;48.608;8.838;2023-12-20T15:02:21;6.10;54.20
32293;DHT22;43233;48.608;8.838;2023-12-20T15:04:46;6.00;54.80
32293;DHT22;43233;48.608;8.838;2023-12-20T15:07:12;6.00;54.80
32293;DHT22;43233;48.608;8.838;2023-12-20T15:09:38;6.00;55.10
32293;DHT22;43233;48.608;8.838;2023-12-20T15:12:04;6.00;55.50
32293;DHT22;43233;48.608;8.838;2023-12-20T15:14:30;6.00;55.90
32293;DHT22;43233;48.608;8.838;2023-12-20T15:16:55;5.90;56.00
32293;DHT22;43233;48.608;8.838;2023-12-20T15:19:22;5.90;56.10
32293;DHT22;43233;48.608;8.838;2023-12-20T15:21:48;5.90;56.40
32293;DHT22;43233;48.608;8.838;2023-12-20T15:24:15;5.80;56.70
32293;DHT22;43233;48.608;8.838;2023-12-20T15:26:43;5.80;57.20
32293;DHT22;43233;48.608;8.838;2023-12-20T15:29:10;5.70;57.40
32293;DHT22;43233;48.608;8.838;2023-12-20T15:31:42;5.80;57.60
32293;DHT22;43233;48.608;8.838;2023-12-20T15:34:08;5.70;57.90
32293;DHT22;43233;48.608;8.838;2023-12-20T15:36:34;5.60;58.00
32293;DHT22;43233;48.608;8.838;2023-12-20T15:38:59;5.60;58.40
32293;DHT22;43233;48.608;8.838;2023-12-20T15:41:25;5.60;58.60